KELM/ELM METAR and TAF weather

Enter ICAO airport designator
Station Type Date Time Source
KELM METAR 2018/04/19 12:53 UTC NOAA

KELM 191253Z 25004KT 7SM BKN007 BKN014 OVC023 01/00 A2976 RMK AO2 SLP085 T00110000


Station Type Date Time Source
KELM Decoded METAR 2018/04/19 12:53 UTC NOAA

ELMIRA COUNTY AIRPORT, NY, United States (KELM) 42-10N 76-54W 302M
Apr 19, 2018 - 08:53 AM EDT / 2018.04.19 1253 UTC
Wind: from the WSW (250 degrees) at 5 MPH (4 KT):0
Visibility: 7 mile(s):0
Sky conditions: overcast
Temperature: 34.0 F (1.1 C)
Windchill: 30 F (-1 C):1
Dew Point: 32.0 F (0.0 C)
Relative Humidity: 92%
Pressure (altimeter): 29.76 in. Hg (1007 hPa)
ob: KELM 191253Z 25004KT 7SM BKN007 BKN014 OVC023 01/00 A2976 RMK AO2 SLP085 T00110000
cycle: 13

Station Type Date Time Source
KELM TAF 2018/04/19 12:22 UTC NOAA

TAF KELM 191120Z 1912/2012 32007KT P6SM OVC025
TEMPO 1914/1918 4SM -SNRA OVC015
FM191800 32011G17KT P6SM OVC025
FM192300 32010G19KT 4SM -SHSN OVC025
FM200300 30011KT P6SM OVC020


Example: see airport list